Painted Rocks, Iowa
Current Conditions -  °F | °C
As of 5:15 AM on Sunday 23 Nov 2014 (Local Time) from KPEA Reporting Station
Overcast Overcast  
Wind Chill: 52°   Ceiling: 900
Heat Index: 52°   Visibility: 10mi
Dew Point: 50°   Wind: 10mph
Humidity: 92%   Direction: 160°SSE
Pressure: 29.58"   Gusts: NA
Location:  41.4592°N, 93.0401°W
Report Text: KPEA 231115Z AUTO 16009KT 10SM OVC009 11/10 A2958 RMK AO2 T01130100
Loading
Personal Weather Stations






























Interactive Weather Map New forecast layout! Learn more

10-Day Weather Forecast

Advertisements
Track Severe Weather on mobile